Time;durP1;ratioP1;P1;durP2;ratioP2;P2;SDS_P1;SDS_P2;PMS_P1;PMS_P2;Temp;Humidity;BMP_temperature;BMP_pressure;BME280_temperature;BME280_humidity;BME280_pressure;Samples;Min_cycle;Max_cycle;Signal;HPM_P1;HPM_P2
2021/05/19 00:00:34;;;;;;;;;;;11.70;99.90;;;;;;5014251;28;19935;-80
2021/05/19 00:02:59;;;;;;;;;;;11.70;99.90;;;;;;4997311;28;19921;-80
2021/05/19 00:05:25;;;;;;;;;;;11.70;99.90;;;;;;5014474;28;20265;-80
2021/05/19 00:07:50;;;;;;;;;;;11.60;99.90;;;;;;5014739;28;19917;-80
2021/05/19 00:10:16;;;;;;;;;;;11.60;99.90;;;;;;5015189;28;19920;-80
2021/05/19 00:12:41;;;;;;;;;;;11.60;99.90;;;;;;5014653;28;20316;-80
2021/05/19 00:15:09;;;;;;;;;;;11.60;99.90;;;;;;4996670;28;19937;-79
2021/05/19 00:17:44;;;;;;;;;;;11.60;99.90;;;;;;5014755;28;19913;-79
2021/05/19 00:20:15;;;;;;;;;;;11.60;99.90;;;;;;4996251;28;20048;-79
2021/05/19 00:22:41;;;;;;;;;;;11.60;99.90;;;;;;5014702;28;19924;-80
2021/05/19 00:25:07;;;;;;;;;;;11.50;99.90;;;;;;4996601;28;19913;-79
2021/05/19 00:27:32;;;;;;;;;;;11.60;99.90;;;;;;5014500;28;20382;-79
2021/05/19 00:29:58;;;;;;;;;;;11.60;99.90;;;;;;4997237;28;19920;-79
2021/05/19 00:32:24;;;;;;;;;;;11.60;99.90;;;;;;4996673;28;19914;-80
2021/05/19 00:34:49;;;;;;;;;;;11.60;99.90;;;;;;5014690;28;19924;-81
2021/05/19 00:37:16;;;;;;;;;;;11.70;99.90;;;;;;5013570;28;20381;-80
2021/05/19 00:39:42;;;;;;;;;;;11.70;99.90;;;;;;5014849;28;19914;-80
2021/05/19 00:42:09;;;;;;;;;;;11.70;99.90;;;;;;4996256;28;19913;-80
2021/05/19 00:44:34;;;;;;;;;;;11.70;99.90;;;;;;4996672;28;19916;-80
2021/05/19 00:47:00;;;;;;;;;;;11.70;99.90;;;;;;4996555;28;20379;-79
2021/05/19 00:49:26;;;;;;;;;;;11.70;99.90;;;;;;5014542;28;19955;-80
2021/05/19 00:51:51;;;;;;;;;;;11.70;99.90;;;;;;5014634;28;19913;-79
2021/05/19 00:54:17;;;;;;;;;;;11.70;99.90;;;;;;5015006;28;19917;-79
2021/05/19 00:56:42;;;;;;;;;;;11.70;99.90;;;;;;4997367;28;19914;-79
2021/05/19 00:59:09;;;;;;;;;;;11.70;99.90;;;;;;4997011;28;19960;-80
2021/05/19 01:01:36;;;;;;;;;;;11.80;99.90;;;;;;5015623;28;19922;-80
2021/05/19 01:04:02;;;;;;;;;;;11.80;99.90;;;;;;5020582;28;19965;-78
2021/05/19 01:06:53;;;;;;;;;;;11.80;99.90;;;;;;5030952;28;19917;-78
2021/05/19 01:11:58;;;;;;;;;;;11.70;99.90;;;;;;5034976;28;19921;-79
2021/05/19 01:14:24;;;;;;;;;;;11.80;99.90;;;;;;5018976;28;19921;-79
2021/05/19 01:16:50;;;;;;;;;;;11.80;99.90;;;;;;5019616;28;19933;-78
2021/05/19 01:19:18;;;;;;;;;;;11.80;99.90;;;;;;5020735;28;19921;-79
2021/05/19 01:21:45;;;;;;;;;;;11.80;99.90;;;;;;5021214;28;19917;-80
2021/05/19 01:24:11;;;;;;;;;;;11.80;99.90;;;;;;5020531;28;19901;-78
2021/05/19 01:26:36;;;;;;;;;;;11.70;99.90;;;;;;5037526;28;19933;-79
2021/05/19 01:29:03;;;;;;;;;;;11.70;99.90;;;;;;5018026;28;19924;-76
2021/05/19 01:31:28;;;;;;;;;;;11.70;99.90;;;;;;5004919;28;19920;-79
2021/05/19 01:33:54;;;;;;;;;;;11.60;99.90;;;;;;5020987;28;20425;-79
2021/05/19 01:36:19;;;;;;;;;;;11.70;99.90;;;;;;5018701;28;19956;-79
2021/05/19 01:38:46;;;;;;;;;;;11.60;99.90;;;;;;4998766;28;19913;-79
2021/05/19 01:41:12;;;;;;;;;;;11.60;99.90;;;;;;4998724;28;19914;-79
2021/05/19 01:43:38;;;;;;;;;;;11.60;99.90;;;;;;4988040;28;19938;-80
2021/05/19 01:46:04;;;;;;;;;;;11.60;99.90;;;;;;4983898;28;19972;-79
2021/05/19 01:48:31;;;;;;;;;;;11.50;99.90;;;;;;4997223;28;19972;-79
2021/05/19 01:50:57;;;;;;;;;;;11.60;99.90;;;;;;4979318;28;20460;-80
2021/05/19 01:53:24;;;;;;;;;;;11.50;99.90;;;;;;5014950;28;19913;-79
2021/05/19 01:55:49;;;;;;;;;;;11.50;99.90;;;;;;5014428;28;20382;-79
2021/05/19 01:58:34;;;;;;;;;;;11.50;99.90;;;;;;4996895;28;19953;-79
2021/05/19 02:01:00;;;;;;;;;;;11.50;99.90;;;;;;5029727;28;20369;-79
2021/05/19 02:03:26;;;;;;;;;;;11.50;99.90;;;;;;4996311;28;19913;-79
2021/05/19 02:05:52;;;;;;;;;;;11.50;99.90;;;;;;5013995;28;19913;-79
2021/05/19 02:08:17;;;;;;;;;;;11.40;99.90;;;;;;5013687;28;19917;-79
2021/05/19 02:10:43;;;;;;;;;;;11.40;99.90;;;;;;4996514;28;20328;-79
2021/05/19 02:13:09;;;;;;;;;;;11.40;99.90;;;;;;5015805;28;20369;-80
2021/05/19 02:15:35;;;;;;;;;;;11.40;99.90;;;;;;4999365;28;19959;-79
2021/05/19 02:18:01;;;;;;;;;;;11.40;99.90;;;;;;5016992;28;19913;-80
2021/05/19 02:20:27;;;;;;;;;;;11.40;99.90;;;;;;5016764;28;20246;-80
2021/05/19 02:22:53;;;;;;;;;;;11.40;99.90;;;;;;4999387;28;20016;-80
2021/05/19 02:25:19;;;;;;;;;;;11.40;99.90;;;;;;4999123;28;19918;-79
2021/05/19 02:27:45;;;;;;;;;;;11.40;99.90;;;;;;4997983;28;19921;-79
2021/05/19 02:30:10;;;;;;;;;;;11.40;99.90;;;;;;4998884;28;19917;-79
2021/05/19 02:32:36;;;;;;;;;;;11.50;99.90;;;;;;5003623;28;20255;-79
2021/05/19 02:35:02;;;;;;;;;;;11.50;99.90;;;;;;5016465;28;19914;-80
2021/05/19 02:37:27;;;;;;;;;;;11.50;99.90;;;;;;4997988;28;19936;-80
2021/05/19 02:39:53;;;;;;;;;;;11.50;99.90;;;;;;5002117;28;19913;-79
2021/05/19 02:42:18;;;;;;;;;;;11.50;99.90;;;;;;4997619;28;19917;-79
2021/05/19 02:44:44;;;;;;;;;;;11.50;99.90;;;;;;4999314;28;20246;-79
2021/05/19 02:47:09;;;;;;;;;;;11.50;99.90;;;;;;4997712;28;20369;-79
2021/05/19 02:49:35;;;;;;;;;;;11.50;99.90;;;;;;5015905;28;19969;-79
2021/05/19 02:52:00;;;;;;;;;;;11.50;99.90;;;;;;5016100;28;20345;-79
2021/05/19 02:54:26;;;;;;;;;;;11.40;99.90;;;;;;5015934;28;20370;-79
2021/05/19 02:56:51;;;;;;;;;;;11.50;99.90;;;;;;4998197;28;19959;-80
2021/05/19 02:59:17;;;;;;;;;;;11.40;99.90;;;;;;5015662;28;19914;-80
2021/05/19 03:01:43;;;;;;;;;;;11.50;99.90;;;;;;4997461;28;19928;-78
2021/05/19 03:04:08;;;;;;;;;;;11.40;99.90;;;;;;4998578;28;20080;-80
2021/05/19 03:06:34;;;;;;;;;;;11.40;99.90;;;;;;5015314;28;19925;-79
2021/05/19 03:09:00;;;;;;;;;;;11.40;99.90;;;;;;4997315;28;19968;-79
2021/05/19 03:11:26;;;;;;;;;;;11.40;99.90;;;;;;5015607;28;19913;-80
2021/05/19 03:13:51;;;;;;;;;;;11.40;99.90;;;;;;4998488;28;19913;-80
2021/05/19 03:16:17;;;;;;;;;;;11.40;99.90;;;;;;5014664;28;19918;-80
2021/05/19 03:18:42;;;;;;;;;;;11.40;99.90;;;;;;4997567;28;20048;-80
2021/05/19 03:21:08;;;;;;;;;;;11.40;99.90;;;;;;4997527;28;19920;-80
2021/05/19 03:23:34;;;;;;;;;;;11.40;99.90;;;;;;5015328;28;19910;-79
2021/05/19 03:26:00;;;;;;;;;;;11.30;99.90;;;;;;5015072;28;19960;-80
2021/05/19 03:28:27;;;;;;;;;;;11.30;99.90;;;;;;5015449;28;20384;-79
2021/05/19 03:30:53;;;;;;;;;;;11.30;99.90;;;;;;5029100;28;19967;-80
2021/05/19 03:33:19;;;;;;;;;;;11.30;99.90;;;;;;5016089;28;19929;-79
2021/05/19 03:35:45;;;;;;;;;;;11.30;99.90;;;;;;4999382;28;19913;-80
2021/05/19 03:38:10;;;;;;;;;;;11.30;99.90;;;;;;5004770;28;19960;-79
2021/05/19 03:40:36;;;;;;;;;;;11.40;99.90;;;;;;5032104;28;19960;-80
2021/05/19 03:43:02;;;;;;;;;;;11.30;99.90;;;;;;5034232;28;20356;-80
2021/05/19 03:45:28;;;;;;;;;;;11.30;99.90;;;;;;5018893;28;19913;-79
2021/05/19 03:47:54;;;;;;;;;;;11.40;99.90;;;;;;5035536;28;19926;-79
2021/05/19 03:50:21;;;;;;;;;;;11.30;99.90;;;;;;5037109;28;19922;-75
2021/05/19 03:52:47;;;;;;;;;;;11.30;99.90;;;;;;5023398;28;20361;-80
2021/05/19 03:55:13;;;;;;;;;;;11.30;99.90;;;;;;5021496;28;19914;-80
2021/05/19 03:57:39;;;;;;;;;;;11.30;99.90;;;;;;5018066;28;20329;-80
2021/05/19 04:00:08;;;;;;;;;;;11.30;99.90;;;;;;5017236;28;20284;-80
2021/05/19 04:02:34;;;;;;;;;;;11.30;99.90;;;;;;4999604;28;19917;-80
2021/05/19 04:04:59;;;;;;;;;;;11.30;99.90;;;;;;4998860;28;19967;-80
2021/05/19 04:07:25;;;;;;;;;;;11.20;99.90;;;;;;5014531;28;19928;-79
2021/05/19 04:09:50;;;;;;;;;;;11.20;99.90;;;;;;4997614;28;19913;-81
2021/05/19 04:12:15;;;;;;;;;;;11.20;99.90;;;;;;5014608;28;20314;-81
2021/05/19 04:14:41;;;;;;;;;;;11.10;99.90;;;;;;5014410;28;19913;-81
2021/05/19 04:17:06;;;;;;;;;;;11.10;99.90;;;;;;5014584;28;19959;-81
2021/05/19 04:19:33;;;;;;;;;;;11.10;99.90;;;;;;5014059;28;19914;-80
2021/05/19 04:21:59;;;;;;;;;;;11.10;99.90;;;;;;5014641;28;20282;-81
2021/05/19 04:24:24;;;;;;;;;;;11.00;99.90;;;;;;5013907;28;19921;-82
2021/05/19 04:26:50;;;;;;;;;;;11.00;99.90;;;;;;5014400;28;19925;-81
2021/05/19 04:29:15;;;;;;;;;;;11.00;99.90;;;;;;4995477;28;20365;-81
2021/05/19 04:31:41;;;;;;;;;;;10.90;99.90;;;;;;4996078;28;19917;-81
2021/05/19 04:34:06;;;;;;;;;;;10.90;99.90;;;;;;4995604;28;20349;-81
2021/05/19 04:36:32;;;;;;;;;;;10.90;99.90;;;;;;4996806;28;19913;-81
2021/05/19 04:38:57;;;;;;;;;;;10.90;99.90;;;;;;5014114;28;19913;-80
2021/05/19 04:41:23;;;;;;;;;;;10.90;99.90;;;;;;4996046;28;19956;-81
2021/05/19 04:43:48;;;;;;;;;;;10.90;99.90;;;;;;4995965;28;19918;-81
2021/05/19 04:46:14;;;;;;;;;;;10.90;99.90;;;;;;5013512;28;19917;-81
2021/05/19 04:48:39;;;;;;;;;;;10.90;99.90;;;;;;5013603;28;20362;-80
2021/05/19 04:51:05;;;;;;;;;;;11.00;99.90;;;;;;4996247;28;20286;-80
2021/05/19 04:53:31;;;;;;;;;;;11.00;99.90;;;;;;5014116;28;20397;-80
2021/05/19 04:55:56;;;;;;;;;;;11.00;99.90;;;;;;5013591;28;19921;-79
2021/05/19 04:58:26;;;;;;;;;;;11.10;99.90;;;;;;4995765;28;20014;-80
2021/05/19 05:00:52;;;;;;;;;;;11.10;99.90;;;;;;5013033;28;19913;-79
2021/05/19 05:03:18;;;;;;;;;;;11.20;99.90;;;;;;4996641;28;19988;-80
2021/05/19 05:05:44;;;;;;;;;;;11.30;99.90;;;;;;4995985;28;20003;-79
2021/05/19 05:08:09;;;;;;;;;;;11.40;99.90;;;;;;4996182;28;19929;-79
2021/05/19 05:10:35;;;;;;;;;;;11.40;99.90;;;;;;5011809;28;20370;-79
2021/05/19 05:13:00;;;;;;;;;;;11.40;99.90;;;;;;5013452;28;19952;-79
2021/05/19 05:15:27;;;;;;;;;;;11.50;99.90;;;;;;5007907;28;20380;-80
2021/05/19 05:17:53;;;;;;;;;;;11.60;99.90;;;;;;4991237;28;19909;-78
2021/05/19 05:20:19;;;;;;;;;;;11.70;99.90;;;;;;5001715;28;19914;-79
2021/05/19 05:22:45;;;;;;;;;;;11.80;99.90;;;;;;5014245;28;20004;-79
2021/05/19 05:25:12;;;;;;;;;;;11.90;99.90;;;;;;4997116;28;19945;-80
2021/05/19 05:27:37;;;;;;;;;;;12.10;99.90;;;;;;4996845;28;19997;-79
2021/05/19 05:30:03;;;;;;;;;;;12.20;99.90;;;;;;4997488;28;19964;-78
2021/05/19 05:32:29;;;;;;;;;;;12.40;99.90;;;;;;5013105;28;20370;-79
2021/05/19 05:34:54;;;;;;;;;;;12.70;99.90;;;;;;5014322;28;20052;-79
2021/05/19 05:37:22;;;;;;;;;;;12.80;99.90;;;;;;5016447;28;19913;-80
2021/05/19 05:39:48;;;;;;;;;;;12.80;99.90;;;;;;5014075;28;19917;-80
2021/05/19 05:42:13;;;;;;;;;;;12.80;99.90;;;;;;5013379;28;20282;-80
2021/05/19 05:44:38;;;;;;;;;;;12.90;99.90;;;;;;4995812;28;19909;-80
2021/05/19 05:47:04;;;;;;;;;;;12.80;99.90;;;;;;4997323;28;19917;-80
2021/05/19 05:49:29;;;;;;;;;;;12.80;99.90;;;;;;5017257;28;20056;-80
2021/05/19 05:51:55;;;;;;;;;;;12.70;99.90;;;;;;5018120;28;20063;-80
2021/05/19 05:54:39;;;;;;;;;;;12.60;99.90;;;;;;4999489;28;19910;-81
2021/05/19 05:57:05;;;;;;;;;;;12.60;99.90;;;;;;5017240;28;19920;-80
2021/05/19 05:59:31;;;;;;;;;;;12.50;99.90;;;;;;5017049;28;19909;-81
2021/05/19 06:01:56;;;;;;;;;;;12.60;99.90;;;;;;5012701;28;19925;-81
2021/05/19 06:04:22;;;;;;;;;;;12.50;99.90;;;;;;4998951;28;19914;-81
2021/05/19 06:06:47;;;;;;;;;;;12.40;99.90;;;;;;4997766;28;21285;-80
2021/05/19 06:09:13;;;;;;;;;;;12.40;99.90;;;;;;5010440;28;20298;-80
2021/05/19 06:11:38;;;;;;;;;;;12.40;99.90;;;;;;5014362;28;19922;-79
2021/05/19 06:14:05;;;;;;;;;;;12.40;99.90;;;;;;5016578;28;19937;-79
2021/05/19 06:16:30;;;;;;;;;;;12.50;99.90;;;;;;5017642;28;20012;-80
2021/05/19 06:18:56;;;;;;;;;;;12.60;99.90;;;;;;5019805;28;19918;-80
2021/05/19 06:21:22;;;;;;;;;;;12.60;99.90;;;;;;5020973;28;19917;-80
2021/05/19 06:23:47;;;;;;;;;;;12.80;99.90;;;;;;5021521;28;19906;-80
2021/05/19 06:26:13;;;;;;;;;;;12.80;99.90;;;;;;5019884;28;19961;-81
2021/05/19 06:28:38;;;;;;;;;;;12.80;99.90;;;;;;5018955;28;19934;-79
2021/05/19 06:31:04;;;;;;;;;;;12.80;99.90;;;;;;5019324;28;19929;-74
2021/05/19 06:33:29;;;;;;;;;;;12.80;99.90;;;;;;5005643;28;19921;-79
2021/05/19 06:35:55;;;;;;;;;;;12.80;99.90;;;;;;5002861;28;19950;-79
2021/05/19 06:38:21;;;;;;;;;;;12.70;99.90;;;;;;5001989;28;19914;-79
2021/05/19 06:40:47;;;;;;;;;;;12.70;99.90;;;;;;5000833;28;19913;-80
2021/05/19 06:43:13;;;;;;;;;;;12.70;99.90;;;;;;5014380;28;19963;-79
2021/05/19 06:45:38;;;;;;;;;;;12.70;99.90;;;;;;4999194;28;19909;-80
2021/05/19 06:50:48;;;;;;;;;;;12.80;99.90;;;;;;4997674;28;19920;-79
2021/05/19 06:53:13;;;;;;;;;;;12.70;99.90;;;;;;4991490;28;20359;-80
2021/05/19 06:55:39;;;;;;;;;;;12.70;99.90;;;;;;4989822;28;19969;-81
2021/05/19 06:58:06;;;;;;;;;;;12.80;99.90;;;;;;4988534;28;19921;-79
2021/05/19 07:00:31;;;;;;;;;;;12.70;99.90;;;;;;4997605;28;20393;-81
2021/05/19 07:02:57;;;;;;;;;;;12.70;99.90;;;;;;4998222;28;19924;-81
2021/05/19 07:05:22;;;;;;;;;;;12.70;99.90;;;;;;5017437;28;19913;-81
2021/05/19 07:07:48;;;;;;;;;;;12.80;99.90;;;;;;5011727;28;19965;-77
2021/05/19 07:10:14;;;;;;;;;;;12.90;99.90;;;;;;4993823;28;20277;-79
2021/05/19 07:12:40;;;;;;;;;;;13.00;99.90;;;;;;5006675;28;19921;-81
2021/05/19 07:15:12;;;;;;;;;;;13.10;99.90;;;;;;4996257;28;20247;-81
2021/05/19 07:17:38;;;;;;;;;;;13.20;99.90;;;;;;4996716;28;19939;-79
2021/05/19 07:20:08;;;;;;;;;;;13.30;99.90;;;;;;5012252;28;19960;-80
2021/05/19 07:22:34;;;;;;;;;;;13.50;99.90;;;;;;5024941;28;19921;-80
2021/05/19 07:25:00;;;;;;;;;;;13.40;99.90;;;;;;5007132;28;20293;-79
2021/05/19 07:27:25;;;;;;;;;;;13.50;99.90;;;;;;5012952;28;20369;-80
2021/05/19 07:29:51;;;;;;;;;;;13.50;99.90;;;;;;4996299;28;19921;-80
2021/05/19 07:32:16;;;;;;;;;;;13.60;99.90;;;;;;4995422;28;19917;-81
2021/05/19 07:34:42;;;;;;;;;;;13.60;99.90;;;;;;5000567;28;20316;-81
2021/05/19 07:37:08;;;;;;;;;;;13.70;99.90;;;;;;4997941;28;19928;-81
2021/05/19 07:39:33;;;;;;;;;;;13.70;99.90;;;;;;4992697;28;19914;-81
2021/05/19 07:41:59;;;;;;;;;;;13.80;99.90;;;;;;5029921;28;19917;-81
2021/05/19 07:44:25;;;;;;;;;;;13.90;99.90;;;;;;4994753;28;20476;-81
2021/05/19 07:46:50;;;;;;;;;;;14.00;99.90;;;;;;4996529;28;20023;-81
2021/05/19 07:49:16;;;;;;;;;;;14.10;99.90;;;;;;4997893;28;19924;-81
2021/05/19 07:51:42;;;;;;;;;;;14.10;99.90;;;;;;5025488;28;20008;-79
2021/05/19 07:54:10;;;;;;;;;;;14.10;99.90;;;;;;5008304;28;19933;-80
2021/05/19 07:56:42;;;;;;;;;;;14.10;99.90;;;;;;5012063;28;19914;-80
2021/05/19 07:59:10;;;;;;;;;;;14.10;99.90;;;;;;4997234;28;20004;-81
2021/05/19 08:04:05;;;;;;;;;;;14.00;99.90;;;;;;5012483;28;20000;-77
2021/05/19 08:06:31;;;;;;;;;;;14.00;99.90;;;;;;5001596;28;20017;-79
2021/05/19 08:08:56;;;;;;;;;;;14.10;99.90;;;;;;5015351;28;19952;-77
2021/05/19 08:11:22;;;;;;;;;;;14.20;99.90;;;;;;5012495;28;20262;-76
2021/05/19 08:13:47;;;;;;;;;;;14.20;99.90;;;;;;5014588;28;19921;-75
2021/05/19 08:16:13;;;;;;;;;;;14.30;99.90;;;;;;5003466;28;19920;-77
2021/05/19 08:18:39;;;;;;;;;;;14.30;99.90;;;;;;5012282;28;19913;-75
2021/05/19 08:21:05;;;;;;;;;;;14.20;99.90;;;;;;5001509;28;19914;-76
2021/05/19 08:23:30;;;;;;;;;;;14.20;99.90;;;;;;5013877;28;20279;-76
2021/05/19 08:25:56;;;;;;;;;;;14.30;99.90;;;;;;5013882;28;19920;-76
2021/05/19 08:28:22;;;;;;;;;;;14.20;99.90;;;;;;5015295;28;20021;-76
2021/05/19 08:30:47;;;;;;;;;;;14.20;99.90;;;;;;5014086;28;20008;-76
2021/05/19 08:33:13;;;;;;;;;;;14.10;99.90;;;;;;4996158;28;19999;-76
2021/05/19 08:35:38;;;;;;;;;;;14.20;99.90;;;;;;5012179;28;19987;-76
2021/05/19 08:38:04;;;;;;;;;;;14.20;99.90;;;;;;5011254;28;20370;-76
2021/05/19 08:40:30;;;;;;;;;;;14.20;99.90;;;;;;5005564;28;19917;-76
2021/05/19 08:42:56;;;;;;;;;;;14.30;99.90;;;;;;4995985;28;19960;-76
2021/05/19 08:45:21;;;;;;;;;;;14.40;99.90;;;;;;4996484;28;19913;-76
2021/05/19 08:47:47;;;;;;;;;;;14.50;99.90;;;;;;5010361;28;19924;-76
2021/05/19 08:50:13;;;;;;;;;;;14.30;99.90;;;;;;5013068;28;19940;-76
2021/05/19 08:52:41;;;;;;;;;;;14.30;99.90;;;;;;5016005;28;20196;-76
2021/05/19 08:55:09;;;;;;;;;;;14.10;99.90;;;;;;5015593;28;20016;-76
2021/05/19 08:57:36;;;;;;;;;;;14.00;99.90;;;;;;5023946;28;19913;-75
2021/05/19 09:00:03;;;;;;;;;;;13.90;99.90;;;;;;4995274;28;19979;-75
2021/05/19 09:02:28;;;;;;;;;;;13.70;99.90;;;;;;5013330;28;19917;-76
2021/05/19 09:04:58;;;;;;;;;;;13.60;99.90;;;;;;4996570;28;20008;-76
2021/05/19 09:07:24;;;;;;;;;;;13.40;99.90;;;;;;5016036;28;20385;-76
2021/05/19 09:09:50;;;;;;;;;;;13.30;99.90;;;;;;5028510;28;19921;-76
2021/05/19 09:12:16;;;;;;;;;;;13.10;99.90;;;;;;5016251;28;19973;-76
2021/05/19 09:14:43;;;;;;;;;;;13.00;99.90;;;;;;5033384;28;19901;-78
2021/05/19 09:17:25;;;;;;;;;;;12.90;99.90;;;;;;5026580;28;19941;-78
2021/05/19 09:20:01;;;;;;;;;;;12.70;99.90;;;;;;5030365;28;19938;-78
2021/05/19 09:22:29;;;;;;;;;;;12.40;99.90;;;;;;5031753;28;19918;-78
2021/05/19 09:24:55;;;;;;;;;;;12.10;99.90;;;;;;5034742;28;19913;-78
2021/05/19 09:27:21;;;;;;;;;;;11.70;99.90;;;;;;5033646;28;19922;-77
2021/05/19 09:29:47;;;;;;;;;;;11.50;99.90;;;;;;5025910;28;19940;-76
2021/05/19 09:32:14;;;;;;;;;;;11.20;99.90;;;;;;5030480;28;19981;-74
2021/05/19 09:34:40;;;;;;;;;;;11.00;99.90;;;;;;5021837;28;19925;-74
2021/05/19 09:37:12;;;;;;;;;;;11.00;99.90;;;;;;5017133;28;19921;-75
2021/05/19 09:39:56;;;;;;;;;;;10.80;99.90;;;;;;5012085;28;19944;-75
2021/05/19 09:42:24;;;;;;;;;;;10.70;99.90;;;;;;5011808;28;19913;-75
2021/05/19 09:44:49;;;;;;;;;;;10.60;99.90;;;;;;5001537;28;19922;-75
2021/05/19 09:47:35;;;;;;;;;;;10.60;99.90;;;;;;5007086;28;19944;-75
2021/05/19 09:50:00;;;;;;;;;;;10.50;99.90;;;;;;5008805;28;20011;-75
2021/05/19 09:52:26;;;;;;;;;;;10.50;99.90;;;;;;5013124;28;20008;-74
2021/05/19 09:54:51;;;;;;;;;;;10.50;99.90;;;;;;5012572;28;20641;-74
2021/05/19 09:57:17;;;;;;;;;;;10.30;99.90;;;;;;5012329;28;19967;-74
2021/05/19 09:59:44;;;;;;;;;;;10.30;99.90;;;;;;4997879;28;19957;-75
2021/05/19 10:02:10;;;;;;;;;;;10.30;99.90;;;;;;5015550;28;19921;-75
2021/05/19 10:04:39;;;;;;;;;;;10.30;99.90;;;;;;5014988;28;19913;-75
2021/05/19 10:07:12;;;;;;;;;;;10.30;99.90;;;;;;4998487;28;19922;-75
2021/05/19 10:09:38;;;;;;;;;;;10.40;99.90;;;;;;5003897;28;20003;-75
2021/05/19 10:12:04;;;;;;;;;;;10.50;99.90;;;;;;5016124;28;19917;-77
2021/05/19 10:14:29;;;;;;;;;;;10.60;99.90;;;;;;4998028;28;20017;-77
2021/05/19 10:16:58;;;;;;;;;;;10.60;99.90;;;;;;5015628;28;20008;-77
2021/05/19 10:19:28;;;;;;;;;;;10.60;99.90;;;;;;4999762;28;19936;-77
2021/05/19 10:21:55;;;;;;;;;;;10.60;99.90;;;;;;4998029;28;19919;-77
2021/05/19 10:24:23;;;;;;;;;;;10.70;99.90;;;;;;5013690;28;19918;-76
2021/05/19 10:26:59;;;;;;;;;;;10.70;99.90;;;;;;5012366;28;19917;-76
2021/05/19 10:29:43;;;;;;;;;;;10.80;99.90;;;;;;5015509;28;19943;-77
2021/05/19 10:32:33;;;;;;;;;;;10.80;99.90;;;;;;5015094;28;19968;-76
2021/05/19 10:35:00;;;;;;;;;;;10.80;99.90;;;;;;5000251;28;19918;-75
2021/05/19 10:37:26;;;;;;;;;;;10.80;99.90;;;;;;5015054;28;20352;-76
2021/05/19 10:40:14;;;;;;;;;;;10.80;99.90;;;;;;5029160;28;19928;-75
2021/05/19 10:42:43;;;;;;;;;;;10.80;99.90;;;;;;4999127;28;19917;-76
2021/05/19 10:45:14;;;;;;;;;;;10.80;99.90;;;;;;5015802;28;19997;-76
2021/05/19 10:47:40;;;;;;;;;;;10.90;99.90;;;;;;5008254;28;19926;-77
2021/05/19 10:50:11;;;;;;;;;;;11.00;99.90;;;;;;4999210;28;19924;-78
2021/05/19 10:58:29;;;;;;;;;;;11.20;99.90;;;;;;5013732;28;20381;-78
2021/05/19 11:00:55;;;;;;;;;;;11.40;99.90;;;;;;5016684;28;19916;-77
2021/05/19 11:03:21;;;;;;;;;;;11.60;99.90;;;;;;5015615;28;20000;-77
2021/05/19 11:05:53;;;;;;;;;;;11.80;99.90;;;;;;5013209;28;19909;-78
2021/05/19 11:08:20;;;;;;;;;;;12.00;99.90;;;;;;5024599;28;19925;-80
2021/05/19 11:10:48;;;;;;;;;;;12.20;99.90;;;;;;5015327;28;19925;-76
2021/05/19 11:13:14;;;;;;;;;;;12.60;99.90;;;;;;5021359;28;20429;-76
2021/05/19 11:18:24;;;;;;;;;;;13.00;99.90;;;;;;5016962;28;19913;-77
2021/05/19 11:20:49;;;;;;;;;;;13.40;99.90;;;;;;5014051;28;19917;-78
2021/05/19 11:23:16;;;;;;;;;;;13.60;99.90;;;;;;5010556;28;19913;-74
2021/05/19 11:25:41;;;;;;;;;;;13.70;99.90;;;;;;4997667;28;19920;-76
2021/05/19 11:28:07;;;;;;;;;;;13.70;99.90;;;;;;5011596;28;19918;-75
2021/05/19 11:30:33;;;;;;;;;;;13.70;99.90;;;;;;5003863;28;19914;-75
2021/05/19 11:33:10;;;;;;;;;;;13.70;99.90;;;;;;5013790;28;20069;-75
2021/05/19 11:35:36;;;;;;;;;;;13.70;99.90;;;;;;5011920;28;19957;-74
2021/05/19 11:38:01;;;;;;;;;;;13.70;99.90;;;;;;5011607;28;19967;-74
2021/05/19 11:40:36;;;;;;;;;;;13.70;99.90;;;;;;5033968;28;19932;-75
2021/05/19 11:43:02;;;;;;;;;;;13.80;99.90;;;;;;5013236;28;20649;-75
2021/05/19 11:45:29;;;;;;;;;;;14.00;99.90;;;;;;5014941;28;19996;-78
2021/05/19 11:47:54;;;;;;;;;;;14.20;99.90;;;;;;4997932;28;19999;-75
2021/05/19 11:50:24;;;;;;;;;;;14.40;99.90;;;;;;5011639;28;20373;-75
2021/05/19 11:53:03;;;;;;;;;;;14.40;99.90;;;;;;5014590;28;20360;-75
2021/05/19 11:55:42;;;;;;;;;;;14.40;99.90;;;;;;5013410;28;19980;-76
2021/05/19 11:58:21;;;;;;;;;;;14.40;99.90;;;;;;5014589;28;19959;-76
2021/05/19 12:00:46;;;;;;;;;;;14.20;99.90;;;;;;5011275;28;20016;-75
2021/05/19 12:03:13;;;;;;;;;;;13.90;99.90;;;;;;5030015;28;19964;-74
2021/05/19 12:05:39;;;;;;;;;;;13.90;99.90;;;;;;4997229;28;19917;-75
2021/05/19 12:08:05;;;;;;;;;;;13.80;99.90;;;;;;5011023;28;19928;-75
2021/05/19 12:10:30;;;;;;;;;;;13.90;99.90;;;;;;5002066;28;19913;-76
2021/05/19 12:12:57;;;;;;;;;;;14.10;99.90;;;;;;5002682;28;19920;-76
2021/05/19 12:15:23;;;;;;;;;;;14.20;99.90;;;;;;5013895;28;19913;-75
2021/05/19 12:17:56;;;;;;;;;;;14.10;99.90;;;;;;5014832;28;20326;-75
2021/05/19 12:20:23;;;;;;;;;;;14.10;99.90;;;;;;5011985;28;19917;-76
2021/05/19 12:22:49;;;;;;;;;;;14.10;99.90;;;;;;5013471;28;20381;-75
2021/05/19 12:25:15;;;;;;;;;;;14.20;99.90;;;;;;5013471;28;19910;-75
2021/05/19 12:27:40;;;;;;;;;;;14.30;99.90;;;;;;5013527;28;19918;-75
2021/05/19 12:30:07;;;;;;;;;;;14.30;99.90;;;;;;4996586;28;20278;-75
2021/05/19 12:32:34;;;;;;;;;;;14.40;99.90;;;;;;5014005;28;20473;-75
2021/05/19 12:34:59;;;;;;;;;;;14.50;99.90;;;;;;5012074;28;19921;-75
2021/05/19 12:37:38;;;;;;;;;;;14.60;99.90;;;;;;5003057;28;19920;-75
2021/05/19 12:40:04;;;;;;;;;;;14.60;99.90;;;;;;5012595;28;19917;-75
2021/05/19 12:42:38;;;;;;;;;;;14.60;99.90;;;;;;5012218;28;19918;-75
2021/05/19 12:45:04;;;;;;;;;;;14.70;99.90;;;;;;5007940;28;20008;-75
2021/05/19 12:47:29;;;;;;;;;;;14.70;99.90;;;;;;5013382;28;20020;-76
2021/05/19 12:49:59;;;;;;;;;;;15.00;99.90;;;;;;5011996;28;19913;-76
2021/05/19 12:52:28;;;;;;;;;;;15.10;99.90;;;;;;4996743;28;19914;-74
2021/05/19 12:54:58;;;;;;;;;;;14.80;99.90;;;;;;4993490;28;19968;-74
2021/05/19 12:57:31;;;;;;;;;;;13.70;99.90;;;;;;4994685;28;20023;-74
2021/05/19 13:00:07;;;;;;;;;;;13.00;99.90;;;;;;5008431;28;19975;-74
2021/05/19 13:02:35;;;;;;;;;;;12.50;99.90;;;;;;5014229;28;19925;-75
2021/05/19 13:05:01;;;;;;;;;;;12.30;99.90;;;;;;5013306;28;19921;-75
2021/05/19 13:07:27;;;;;;;;;;;12.30;99.90;;;;;;5010831;28;19921;-75
2021/05/19 13:10:14;;;;;;;;;;;12.30;99.90;;;;;;4996702;28;20031;-75
2021/05/19 13:13:18;;;;;;;;;;;12.50;99.90;;;;;;5000385;28;19913;-75
2021/05/19 13:15:49;;;;;;;;;;;12.70;99.90;;;;;;5001242;28;19920;-75
2021/05/19 13:18:22;;;;;;;;;;;12.90;99.90;;;;;;4997729;28;19921;-75
2021/05/19 13:20:52;;;;;;;;;;;13.10;99.90;;;;;;4999552;28;19921;-75
2021/05/19 13:23:18;;;;;;;;;;;13.20;99.90;;;;;;5007804;28;19917;-76
2021/05/19 13:25:45;;;;;;;;;;;13.30;99.90;;;;;;5006792;28;19913;-76
2021/05/19 13:28:19;;;;;;;;;;;13.40;99.90;;;;;;5005402;28;20281;-76
2021/05/19 13:30:45;;;;;;;;;;;13.40;99.90;;;;;;5022007;28;20346;-75
2021/05/19 13:36:21;;;;;;;;;;;13.50;99.90;;;;;;5023148;28;19964;-76
2021/05/19 13:38:47;;;;;;;;;;;13.60;99.90;;;;;;5022376;28;19914;-76
2021/05/19 13:41:12;;;;;;;;;;;13.70;99.90;;;;;;5017922;28;20325;-75
2021/05/19 13:43:38;;;;;;;;;;;13.60;99.90;;;;;;5008020;28;19913;-75
2021/05/19 13:46:04;;;;;;;;;;;13.50;99.90;;;;;;5021020;28;19936;-77
2021/05/19 13:48:30;;;;;;;;;;;13.50;99.90;;;;;;4999970;28;19937;-76
2021/05/19 13:50:57;;;;;;;;;;;13.40;99.90;;;;;;5014567;28;19913;-77
2021/05/19 13:53:22;;;;;;;;;;;13.30;99.90;;;;;;5015230;28;20029;-76
2021/05/19 13:55:48;;;;;;;;;;;13.30;99.90;;;;;;5014461;28;19941;-76
2021/05/19 13:58:14;;;;;;;;;;;13.30;99.90;;;;;;5004121;28;20305;-76
2021/05/19 14:00:39;;;;;;;;;;;13.30;99.90;;;;;;5015734;28;19961;-76
2021/05/19 14:03:05;;;;;;;;;;;13.40;99.90;;;;;;5014306;28;19925;-76
2021/05/19 14:05:30;;;;;;;;;;;13.50;99.90;;;;;;4996996;28;19920;-76
2021/05/19 14:07:56;;;;;;;;;;;13.60;99.90;;;;;;5015075;28;20251;-76
2021/05/19 14:10:25;;;;;;;;;;;13.60;99.90;;;;;;5016616;28;19914;-76
2021/05/19 14:12:53;;;;;;;;;;;13.80;99.90;;;;;;5013786;28;19914;-76
2021/05/19 14:28:23;;;;;;;;;;;14.30;99.90;;;;;;5011257;28;19964;-76
2021/05/19 14:30:48;;;;;;;;;;;14.10;99.90;;;;;;5010189;28;19913;-75
2021/05/19 14:33:14;;;;;;;;;;;14.00;99.90;;;;;;5017033;28;20374;-76
2021/05/19 14:54:23;;;;;;;;;;;16.00;99.90;;;;;;5016373;28;19919;-75
2021/05/19 14:59:42;;;;;;;;;;;16.40;99.90;;;;;;5016657;28;19921;-76
2021/05/19 15:02:08;;;;;;;;;;;16.40;99.90;;;;;;5015116;28;19917;-76
2021/05/19 15:04:33;;;;;;;;;;;16.60;99.90;;;;;;5016119;28;20048;-76
2021/05/19 15:06:59;;;;;;;;;;;16.20;99.90;;;;;;4999465;28;19932;-76
2021/05/19 15:09:24;;;;;;;;;;;16.10;99.90;;;;;;5015240;28;19913;-76